createdAt,value
2023-01-10T00:04:20.899Z,5.86
2023-01-10T00:10:27.013Z,6.67
2023-01-10T00:16:32.464Z,6.08
2023-01-10T00:22:34.951Z,6.81
2023-01-10T00:28:39.853Z,6.85
2023-01-10T00:34:44.916Z,6.86
2023-01-10T00:47:05.709Z,6.19
2023-01-10T00:53:10.646Z,6.89
2023-01-10T00:59:15.820Z,6.91
2023-01-10T01:05:25.286Z,6.85
2023-01-10T01:11:30.104Z,6.74
2023-01-10T01:17:32.270Z,6.75
2023-01-10T01:23:37.482Z,6.37
2023-01-10T01:29:44.451Z,6.47
2023-01-10T01:35:51.156Z,6.14
2023-01-10T01:42:02.169Z,6.48
2023-01-10T01:48:20.755Z,6.48
2023-01-10T01:54:26.546Z,6.40
2023-01-10T02:00:33.012Z,6.23
2023-01-10T02:06:37.135Z,6.48
2023-01-10T02:12:44.627Z,6.48
2023-01-10T02:18:46.498Z,6.50
2023-01-10T02:25:22.642Z,6.39
2023-01-10T02:32:05.288Z,6.41
2023-01-10T02:38:39.532Z,6.33
2023-01-10T02:45:06.097Z,5.58
2023-01-10T02:51:26.016Z,6.19
2023-01-10T02:58:00.605Z,5.88
2023-01-10T03:04:42.265Z,6.00
2023-01-10T03:10:53.769Z,5.98
2023-01-10T03:17:04.826Z,5.89
2023-01-10T03:23:07.411Z,5.97
2023-01-10T03:29:14.130Z,5.89
2023-01-10T03:35:24.575Z,5.53
2023-01-10T03:41:43.201Z,5.78
2023-01-10T03:47:55.797Z,5.85
2023-01-10T03:54:06.197Z,5.68
2023-01-10T04:00:11.698Z,5.89
2023-01-10T04:06:17.736Z,5.73
2023-01-10T04:12:25.435Z,5.93
2023-01-10T04:18:29.086Z,5.93
2023-01-10T04:24:31.548Z,5.94
2023-01-10T04:30:35.015Z,5.78
2023-01-10T04:36:37.468Z,5.81
2023-01-10T04:42:43.346Z,5.79
2023-01-10T04:48:45.421Z,5.87
2023-01-10T04:54:47.952Z,5.78
2023-01-10T05:00:54.259Z,5.80
2023-01-10T05:06:58.474Z,5.10
2023-01-10T05:13:05.346Z,5.45
2023-01-10T05:19:13.614Z,5.17
2023-01-10T05:25:26.567Z,5.70
2023-01-10T05:31:28.860Z,5.23
2023-01-10T05:37:41.076Z,4.72
2023-01-10T05:43:45.793Z,5.66
2023-01-10T05:49:48.253Z,5.54
2023-01-10T05:55:58.488Z,5.45
2023-01-10T06:02:04.277Z,5.51
2023-01-10T06:08:06.705Z,5.46
2023-01-10T06:14:09.149Z,5.61
2023-01-10T06:20:12.482Z,5.38
2023-01-10T06:26:19.085Z,5.46
2023-01-10T06:32:21.570Z,5.30
2023-01-10T06:38:27.018Z,5.41
2023-01-10T06:44:28.937Z,5.40
2023-01-10T06:50:31.973Z,5.47
2023-01-10T06:56:34.409Z,5.44
2023-01-10T07:02:37.883Z,5.28
2023-01-10T07:08:45.296Z,4.69
2023-01-10T07:14:49.029Z,5.32
2023-01-10T07:20:52.767Z,5.38
2023-01-10T07:27:10.199Z,5.03
2023-01-10T07:33:15.282Z,5.37
2023-01-10T07:39:26.727Z,5.22
2023-01-10T07:45:39.189Z,5.21
2023-01-10T07:51:41.768Z,5.15
2023-01-10T07:57:45.240Z,4.49
2023-01-10T08:03:47.728Z,4.46
2023-01-10T08:09:53.036Z,4.90
2023-01-10T08:15:55.732Z,5.01
2023-01-10T08:21:58.136Z,4.86
2023-01-10T08:28:00.595Z,4.28
2023-01-10T08:34:06.096Z,4.10
2023-01-10T08:40:09.540Z,3.61
2023-01-10T08:46:12.026Z,3.10
2023-01-10T08:52:14.415Z,3.35
2023-01-10T08:58:19.899Z,3.14
2023-01-10T09:04:22.386Z,2.52
2023-01-10T09:10:26.635Z,3.10
2023-01-10T09:16:29.273Z,3.03
2023-01-10T09:22:33.845Z,2.34
2023-01-10T09:28:36.251Z,2.02
2023-01-10T09:34:38.745Z,2.35
2023-01-10T09:40:47.192Z,2.83
2023-01-10T09:47:25.718Z,2.82
2023-01-10T09:53:31.316Z,2.90
2023-01-10T09:59:40.782Z,2.95
2023-01-10T10:05:46.277Z,2.54
2023-01-10T10:12:05.823Z,2.96
2023-01-10T10:18:31.400Z,2.60
2023-01-10T10:24:45.906Z,3.04
2023-01-10T10:31:06.537Z,2.99
2023-01-10T10:37:36.060Z,3.09
2023-01-10T10:43:42.848Z,2.80
2023-01-10T10:49:54.079Z,3.03
2023-01-10T10:55:57.484Z,3.05
2023-01-10T11:02:00.005Z,2.68
2023-01-10T11:08:10.364Z,2.87
2023-01-10T11:14:14.872Z,2.78
2023-01-10T11:20:20.397Z,2.30
2023-01-10T11:26:36.897Z,2.68
2023-01-10T11:32:57.854Z,2.62
2023-01-10T11:39:05.929Z,2.69
2023-01-10T11:45:20.513Z,2.74
2023-01-10T11:51:29.959Z,2.78
2023-01-10T11:57:34.407Z,2.77
2023-01-10T12:03:38.901Z,2.76
2023-01-10T12:09:50.395Z,2.80
2023-01-10T12:15:52.866Z,2.72
2023-01-10T12:22:00.347Z,2.82
2023-01-10T12:28:04.854Z,2.69
2023-01-10T12:34:16.853Z,2.68
2023-01-10T12:40:50.701Z,2.81
2023-01-10T12:47:07.217Z,2.78
2023-01-10T12:53:29.985Z,2.63
2023-01-10T12:59:45.516Z,3.03
2023-01-10T13:05:50.967Z,2.91
2023-01-10T13:11:56.473Z,2.63
2023-01-10T13:18:06.979Z,3.00
2023-01-10T13:24:36.532Z,2.89
2023-01-10T13:30:44.833Z,2.93
2023-01-10T13:36:56.769Z,3.12
2023-01-10T13:43:50.077Z,3.12
2023-01-10T13:49:52.667Z,3.14
2023-01-10T13:55:58.132Z,3.15
2023-01-10T14:02:20.744Z,2.74
2023-01-10T14:08:23.154Z,2.78
2023-01-10T14:14:40.658Z,3.04
2023-01-10T14:20:44.129Z,2.78
2023-01-10T14:26:48.623Z,3.05
2023-01-10T14:32:53.075Z,3.10
2023-01-10T14:38:59.552Z,2.97
2023-01-10T14:45:21.097Z,2.86
2023-01-10T14:51:30.591Z,3.14
2023-01-10T14:57:33.069Z,3.20
2023-01-10T15:03:35.517Z,3.20
2023-01-10T15:09:37.959Z,3.09
2023-01-10T15:15:41.461Z,2.69
2023-01-10T15:21:45.895Z,2.98
2023-01-10T15:27:52.341Z,3.25
2023-01-10T15:33:59.818Z,3.23
2023-01-10T15:40:03.415Z,3.14
2023-01-10T15:46:06.790Z,3.16
2023-01-10T15:52:21.699Z,2.80
2023-01-10T15:58:36.786Z,3.01
2023-01-10T16:04:40.306Z,3.18
2023-01-10T16:10:42.743Z,3.23
2023-01-10T16:16:45.220Z,3.27
2023-01-10T16:22:49.698Z,3.19
2023-01-10T16:28:52.164Z,1.83
2023-01-10T16:34:54.609Z,2.38
2023-01-10T16:41:27.190Z,2.67
2023-01-10T16:47:29.675Z,3.29
2023-01-10T16:53:32.121Z,3.24
2023-01-10T16:59:37.508Z,3.18
2023-01-10T17:05:41.125Z,2.81
2023-01-10T17:11:43.551Z,3.09
2023-01-10T17:17:46.000Z,2.74
2023-01-10T17:23:48.485Z,2.77
2023-01-10T17:29:50.925Z,2.56
2023-01-10T17:35:57.420Z,3.18
2023-01-10T17:42:00.887Z,2.84
2023-01-10T17:48:03.348Z,3.10
2023-01-10T17:54:05.238Z,3.09
2023-01-10T18:00:08.323Z,3.15
2023-01-10T18:06:22.788Z,2.76
2023-01-10T18:12:28.208Z,2.96
2023-01-10T18:18:31.686Z,3.23
2023-01-10T18:24:34.138Z,3.30
2023-01-10T18:30:36.616Z,3.25
2023-01-10T18:36:41.069Z,3.32
2023-01-10T18:42:44.509Z,3.44
2023-01-10T18:48:57.025Z,3.59
2023-01-10T18:55:02.094Z,3.58
2023-01-10T19:01:10.990Z,3.62
2023-01-10T19:07:13.401Z,3.55
2023-01-10T19:13:24.445Z,3.55
2023-01-10T19:19:27.337Z,3.68
2023-01-10T19:25:29.820Z,3.53
2023-01-10T19:31:33.295Z,3.20
2023-01-10T19:37:35.816Z,3.79
2023-01-10T19:43:38.206Z,3.79
2023-01-10T19:49:40.673Z,3.45
2023-01-10T19:55:43.141Z,4.13
2023-01-10T20:01:46.728Z,4.18
2023-01-10T20:07:51.057Z,4.10
2023-01-10T20:13:57.481Z,4.35
2023-01-10T20:20:00.994Z,4.14
2023-01-10T20:26:12.515Z,4.27
2023-01-10T20:32:16.028Z,4.16
2023-01-10T20:38:18.458Z,3.79
2023-01-10T20:44:20.911Z,4.59
2023-01-10T20:50:24.388Z,4.25
2023-01-10T20:56:29.989Z,4.28
2023-01-10T21:02:32.295Z,4.55
2023-01-10T21:08:36.565Z,4.87
2023-01-10T21:14:39.183Z,4.70
2023-01-10T21:20:45.664Z,3.91
2023-01-10T21:26:50.097Z,4.52
2023-01-10T21:32:52.568Z,5.24
2023-01-10T21:38:55.018Z,5.28
2023-01-10T21:44:57.476Z,5.42
2023-01-10T21:51:02.958Z,5.52
2023-01-10T21:57:05.442Z,5.61
2023-01-10T22:03:09.802Z,5.54
2023-01-10T22:09:12.364Z,5.50
2023-01-10T22:15:14.836Z,5.24
2023-01-10T22:21:20.334Z,5.44
2023-01-10T22:27:22.781Z,5.02
2023-01-10T22:33:31.279Z,5.11
2023-01-10T22:39:35.779Z,5.01
2023-01-10T22:45:42.290Z,4.48
2023-01-10T22:51:47.050Z,4.65
2023-01-10T22:57:51.157Z,4.67
2023-01-10T23:03:53.648Z,4.63
2023-01-10T23:09:56.069Z,4.57
2023-01-10T23:16:03.553Z,4.46
2023-01-10T23:22:05.997Z,4.59
2023-01-10T23:28:08.482Z,4.60
2023-01-10T23:34:10.920Z,3.77
2023-01-10T23:40:13.367Z,4.75
2023-01-10T23:46:15.881Z,4.44
2023-01-10T23:52:18.305Z,4.24
2023-01-10T23:58:22.776Z,4.24
